sensor_id;sensor_type;location;lat;lon;timestamp;P1;durP1;ratioP1;P2;durP2;ratioP2
19782;SDS011;10051;40.294;-3.754;2023-02-15T00:01:05;15.53;;;9.17;;
19782;SDS011;10051;40.294;-3.754;2023-02-15T00:03:35;17.70;;;9.27;;
19782;SDS011;10051;40.294;-3.754;2023-02-15T00:06:01;17.00;;;9.20;;
19782;SDS011;10051;40.294;-3.754;2023-02-15T00:08:27;15.13;;;9.80;;
19782;SDS011;10051;40.294;-3.754;2023-02-15T00:10:53;17.23;;;9.60;;
19782;SDS011;10051;40.294;-3.754;2023-02-15T00:13:18;15.18;;;9.88;;
19782;SDS011;10051;40.294;-3.754;2023-02-15T00:15:44;16.73;;;9.87;;
19782;SDS011;10051;40.294;-3.754;2023-02-15T00:18:10;16.90;;;9.60;;
19782;SDS011;10051;40.294;-3.754;2023-02-15T00:20:35;17.03;;;9.13;;
19782;SDS011;10051;40.294;-3.754;2023-02-15T00:23:01;21.37;;;10.53;;
19782;SDS011;10051;40.294;-3.754;2023-02-15T00:25:26;16.50;;;10.10;;
19782;SDS011;10051;40.294;-3.754;2023-02-15T00:27:52;17.80;;;10.00;;
19782;SDS011;10051;40.294;-3.754;2023-02-15T00:30:17;15.00;;;9.63;;
19782;SDS011;10051;40.294;-3.754;2023-02-15T00:32:43;16.27;;;10.07;;
19782;SDS011;10051;40.294;-3.754;2023-02-15T00:35:08;19.00;;;9.77;;
19782;SDS011;10051;40.294;-3.754;2023-02-15T00:37:34;18.93;;;9.83;;
19782;SDS011;10051;40.294;-3.754;2023-02-15T00:40:00;16.37;;;9.40;;
19782;SDS011;10051;40.294;-3.754;2023-02-15T00:42:26;16.33;;;9.47;;
19782;SDS011;10051;40.294;-3.754;2023-02-15T00:44:55;15.50;;;9.80;;
19782;SDS011;10051;40.294;-3.754;2023-02-15T00:47:20;21.70;;;9.60;;
19782;SDS011;10051;40.294;-3.754;2023-02-15T00:49:46;16.67;;;9.53;;
19782;SDS011;10051;40.294;-3.754;2023-02-15T00:52:11;18.23;;;9.57;;
19782;SDS011;10051;40.294;-3.754;2023-02-15T00:54:37;16.17;;;9.63;;
19782;SDS011;10051;40.294;-3.754;2023-02-15T00:57:03;16.50;;;10.13;;
19782;SDS011;10051;40.294;-3.754;2023-02-15T00:59:29;14.80;;;9.73;;
19782;SDS011;10051;40.294;-3.754;2023-02-15T01:01:54;20.23;;;10.17;;
19782;SDS011;10051;40.294;-3.754;2023-02-15T01:04:20;17.03;;;10.20;;
19782;SDS011;10051;40.294;-3.754;2023-02-15T01:06:46;18.30;;;10.30;;
19782;SDS011;10051;40.294;-3.754;2023-02-15T01:09:11;19.20;;;10.05;;
19782;SDS011;10051;40.294;-3.754;2023-02-15T01:11:38;17.77;;;10.23;;
19782;SDS011;10051;40.294;-3.754;2023-02-15T01:14:04;16.63;;;10.07;;
19782;SDS011;10051;40.294;-3.754;2023-02-15T01:16:30;19.87;;;10.23;;
19782;SDS011;10051;40.294;-3.754;2023-02-15T01:18:56;19.27;;;10.10;;
19782;SDS011;10051;40.294;-3.754;2023-02-15T01:21:23;21.58;;;9.82;;
19782;SDS011;10051;40.294;-3.754;2023-02-15T01:23:49;18.23;;;10.00;;
19782;SDS011;10051;40.294;-3.754;2023-02-15T01:26:15;17.20;;;9.83;;
19782;SDS011;10051;40.294;-3.754;2023-02-15T01:28:41;15.75;;;10.10;;
19782;SDS011;10051;40.294;-3.754;2023-02-15T01:31:08;16.00;;;10.20;;
19782;SDS011;10051;40.294;-3.754;2023-02-15T01:33:36;17.17;;;9.67;;
19782;SDS011;10051;40.294;-3.754;2023-02-15T01:36:02;18.90;;;9.40;;
19782;SDS011;10051;40.294;-3.754;2023-02-15T01:38:28;14.33;;;9.13;;
19782;SDS011;10051;40.294;-3.754;2023-02-15T01:40:54;15.77;;;9.53;;
19782;SDS011;10051;40.294;-3.754;2023-02-15T01:43:44;17.00;;;9.40;;
19782;SDS011;10051;40.294;-3.754;2023-02-15T01:46:11;14.67;;;9.40;;
19782;SDS011;10051;40.294;-3.754;2023-02-15T01:48:50;14.27;;;8.98;;
19782;SDS011;10051;40.294;-3.754;2023-02-15T01:51:19;15.17;;;9.30;;
19782;SDS011;10051;40.294;-3.754;2023-02-15T01:53:50;16.88;;;8.88;;
19782;SDS011;10051;40.294;-3.754;2023-02-15T01:56:23;16.20;;;9.60;;
19782;SDS011;10051;40.294;-3.754;2023-02-15T01:58:53;17.70;;;9.80;;
19782;SDS011;10051;40.294;-3.754;2023-02-15T02:01:20;18.93;;;9.20;;
19782;SDS011;10051;40.294;-3.754;2023-02-15T02:03:55;15.37;;;9.47;;
19782;SDS011;10051;40.294;-3.754;2023-02-15T02:06:32;15.53;;;9.63;;
19782;SDS011;10051;40.294;-3.754;2023-02-15T02:09:00;18.45;;;9.95;;
19782;SDS011;10051;40.294;-3.754;2023-02-15T02:11:27;19.95;;;9.65;;
19782;SDS011;10051;40.294;-3.754;2023-02-15T02:13:53;15.37;;;9.40;;
19782;SDS011;10051;40.294;-3.754;2023-02-15T02:16:21;16.93;;;9.67;;
19782;SDS011;10051;40.294;-3.754;2023-02-15T02:18:59;16.70;;;9.07;;
19782;SDS011;10051;40.294;-3.754;2023-02-15T02:38:33;14.95;;;9.13;;
19782;SDS011;10051;40.294;-3.754;2023-02-15T02:41:16;15.77;;;9.20;;
19782;SDS011;10051;40.294;-3.754;2023-02-15T02:46:15;15.57;;;8.98;;
19782;SDS011;10051;40.294;-3.754;2023-02-15T02:48:51;13.10;;;8.03;;
19782;SDS011;10051;40.294;-3.754;2023-02-15T02:51:18;13.63;;;9.13;;
19782;SDS011;10051;40.294;-3.754;2023-02-15T02:53:47;15.83;;;9.10;;
19782;SDS011;10051;40.294;-3.754;2023-02-15T03:01:51;15.20;;;8.95;;
19782;SDS011;10051;40.294;-3.754;2023-02-15T03:04:18;15.93;;;8.15;;
19782;SDS011;10051;40.294;-3.754;2023-02-15T03:06:52;14.02;;;8.77;;
19782;SDS011;10051;40.294;-3.754;2023-02-15T03:09:27;16.52;;;8.50;;
19782;SDS011;10051;40.294;-3.754;2023-02-15T03:12:00;14.82;;;8.50;;
19782;SDS011;10051;40.294;-3.754;2023-02-15T03:14:28;14.98;;;8.15;;
19782;SDS011;10051;40.294;-3.754;2023-02-15T03:16:55;15.27;;;8.40;;
19782;SDS011;10051;40.294;-3.754;2023-02-15T03:19:23;13.18;;;8.25;;
19782;SDS011;10051;40.294;-3.754;2023-02-15T03:21:56;13.70;;;8.70;;
19782;SDS011;10051;40.294;-3.754;2023-02-15T03:27:25;18.40;;;8.68;;
19782;SDS011;10051;40.294;-3.754;2023-02-15T03:29:56;12.80;;;7.93;;
19782;SDS011;10051;40.294;-3.754;2023-02-15T03:32:25;13.27;;;8.13;;
19782;SDS011;10051;40.294;-3.754;2023-02-15T03:34:56;14.35;;;8.48;;
19782;SDS011;10051;40.294;-3.754;2023-02-15T03:40:01;15.27;;;8.57;;
19782;SDS011;10051;40.294;-3.754;2023-02-15T03:42:55;16.13;;;8.85;;
19782;SDS011;10051;40.294;-3.754;2023-02-15T03:45:28;15.18;;;8.98;;
19782;SDS011;10051;40.294;-3.754;2023-02-15T03:47:56;18.40;;;9.40;;
19782;SDS011;10051;40.294;-3.754;2023-02-15T03:50:26;12.48;;;8.70;;
19782;SDS011;10051;40.294;-3.754;2023-02-15T03:53:14;16.48;;;9.35;;
19782;SDS011;10051;40.294;-3.754;2023-02-15T03:55:45;15.03;;;8.63;;
19782;SDS011;10051;40.294;-3.754;2023-02-15T03:58:14;16.70;;;9.70;;
19782;SDS011;10051;40.294;-3.754;2023-02-15T04:00:59;14.30;;;9.10;;
19782;SDS011;10051;40.294;-3.754;2023-02-15T04:03:57;16.97;;;9.00;;
19782;SDS011;10051;40.294;-3.754;2023-02-15T04:06:28;16.27;;;8.60;;
19782;SDS011;10051;40.294;-3.754;2023-02-15T04:08:53;13.67;;;8.20;;
19782;SDS011;10051;40.294;-3.754;2023-02-15T04:11:37;15.45;;;8.88;;
19782;SDS011;10051;40.294;-3.754;2023-02-15T04:14:03;15.30;;;8.77;;
19782;SDS011;10051;40.294;-3.754;2023-02-15T04:16:48;14.57;;;8.80;;
19782;SDS011;10051;40.294;-3.754;2023-02-15T04:19:14;14.93;;;9.00;;
19782;SDS011;10051;40.294;-3.754;2023-02-15T04:21:58;17.63;;;9.02;;
19782;SDS011;10051;40.294;-3.754;2023-02-15T04:24:42;19.27;;;9.68;;
19782;SDS011;10051;40.294;-3.754;2023-02-15T04:27:26;15.30;;;9.30;;
19782;SDS011;10051;40.294;-3.754;2023-02-15T04:29:57;16.00;;;9.48;;
19782;SDS011;10051;40.294;-3.754;2023-02-15T04:32:23;19.07;;;9.20;;
19782;SDS011;10051;40.294;-3.754;2023-02-15T04:34:49;13.55;;;9.27;;
19782;SDS011;10051;40.294;-3.754;2023-02-15T04:37:15;14.45;;;9.38;;
19782;SDS011;10051;40.294;-3.754;2023-02-15T04:39:40;14.27;;;9.33;;
19782;SDS011;10051;40.294;-3.754;2023-02-15T04:42:06;15.13;;;9.33;;
19782;SDS011;10051;40.294;-3.754;2023-02-15T04:44:31;14.67;;;9.37;;
19782;SDS011;10051;40.294;-3.754;2023-02-15T04:46:59;17.03;;;9.43;;
19782;SDS011;10051;40.294;-3.754;2023-02-15T04:49:24;14.48;;;8.85;;
19782;SDS011;10051;40.294;-3.754;2023-02-15T04:51:50;16.17;;;8.93;;
19782;SDS011;10051;40.294;-3.754;2023-02-15T04:54:15;14.87;;;9.17;;
19782;SDS011;10051;40.294;-3.754;2023-02-15T04:56:41;15.47;;;9.00;;
19782;SDS011;10051;40.294;-3.754;2023-02-15T04:59:09;14.88;;;9.18;;
19782;SDS011;10051;40.294;-3.754;2023-02-15T05:01:36;16.05;;;9.15;;
19782;SDS011;10051;40.294;-3.754;2023-02-15T05:04:01;16.27;;;9.07;;
19782;SDS011;10051;40.294;-3.754;2023-02-15T05:06:28;13.90;;;8.75;;
19782;SDS011;10051;40.294;-3.754;2023-02-15T05:08:54;14.37;;;8.60;;
19782;SDS011;10051;40.294;-3.754;2023-02-15T05:11:24;18.43;;;9.33;;
19782;SDS011;10051;40.294;-3.754;2023-02-15T05:13:50;17.10;;;9.00;;
19782;SDS011;10051;40.294;-3.754;2023-02-15T05:16:16;16.02;;;9.05;;
19782;SDS011;10051;40.294;-3.754;2023-02-15T05:18:41;17.88;;;9.65;;
19782;SDS011;10051;40.294;-3.754;2023-02-15T05:21:07;22.30;;;9.27;;
19782;SDS011;10051;40.294;-3.754;2023-02-15T05:23:33;15.35;;;9.63;;
19782;SDS011;10051;40.294;-3.754;2023-02-15T05:25:58;16.63;;;9.75;;
19782;SDS011;10051;40.294;-3.754;2023-02-15T05:28:42;15.52;;;9.63;;
19782;SDS011;10051;40.294;-3.754;2023-02-15T05:31:12;15.38;;;9.98;;
19782;SDS011;10051;40.294;-3.754;2023-02-15T05:33:40;13.98;;;9.40;;
19782;SDS011;10051;40.294;-3.754;2023-02-15T05:36:06;16.67;;;9.53;;
19782;SDS011;10051;40.294;-3.754;2023-02-15T05:38:32;16.33;;;9.90;;
19782;SDS011;10051;40.294;-3.754;2023-02-15T05:40:58;15.35;;;9.75;;
19782;SDS011;10051;40.294;-3.754;2023-02-15T05:43:24;18.53;;;10.10;;
19782;SDS011;10051;40.294;-3.754;2023-02-15T05:45:50;17.70;;;10.30;;
19782;SDS011;10051;40.294;-3.754;2023-02-15T05:48:18;16.47;;;9.93;;
19782;SDS011;10051;40.294;-3.754;2023-02-15T05:50:44;19.23;;;10.07;;
19782;SDS011;10051;40.294;-3.754;2023-02-15T05:53:10;16.37;;;9.30;;
19782;SDS011;10051;40.294;-3.754;2023-02-15T05:55:39;17.10;;;9.37;;
19782;SDS011;10051;40.294;-3.754;2023-02-15T05:58:06;13.67;;;8.87;;
19782;SDS011;10051;40.294;-3.754;2023-02-15T06:00:32;15.00;;;9.35;;
19782;SDS011;10051;40.294;-3.754;2023-02-15T06:02:58;17.13;;;9.60;;
19782;SDS011;10051;40.294;-3.754;2023-02-15T06:05:24;17.03;;;9.20;;
19782;SDS011;10051;40.294;-3.754;2023-02-15T06:07:50;15.10;;;9.60;;
19782;SDS011;10051;40.294;-3.754;2023-02-15T06:10:15;16.97;;;9.83;;
19782;SDS011;10051;40.294;-3.754;2023-02-15T06:12:41;15.85;;;9.63;;
19782;SDS011;10051;40.294;-3.754;2023-02-15T06:15:09;19.15;;;9.80;;
19782;SDS011;10051;40.294;-3.754;2023-02-15T06:17:40;15.43;;;9.63;;
19782;SDS011;10051;40.294;-3.754;2023-02-15T06:20:07;21.10;;;9.70;;
19782;SDS011;10051;40.294;-3.754;2023-02-15T06:22:33;17.07;;;10.00;;
19782;SDS011;10051;40.294;-3.754;2023-02-15T06:24:59;16.10;;;9.67;;
19782;SDS011;10051;40.294;-3.754;2023-02-15T06:27:27;18.40;;;10.43;;
19782;SDS011;10051;40.294;-3.754;2023-02-15T06:29:52;19.50;;;10.30;;
19782;SDS011;10051;40.294;-3.754;2023-02-15T06:32:18;23.10;;;11.13;;
19782;SDS011;10051;40.294;-3.754;2023-02-15T06:34:44;21.40;;;10.53;;
19782;SDS011;10051;40.294;-3.754;2023-02-15T06:37:09;23.10;;;10.73;;
19782;SDS011;10051;40.294;-3.754;2023-02-15T06:39:35;16.43;;;10.23;;
19782;SDS011;10051;40.294;-3.754;2023-02-15T06:42:01;18.97;;;10.13;;
19782;SDS011;10051;40.294;-3.754;2023-02-15T06:44:26;19.40;;;10.00;;
19782;SDS011;10051;40.294;-3.754;2023-02-15T06:46:52;16.37;;;10.03;;
19782;SDS011;10051;40.294;-3.754;2023-02-15T06:49:17;17.17;;;10.00;;
19782;SDS011;10051;40.294;-3.754;2023-02-15T06:51:43;18.93;;;10.30;;
19782;SDS011;10051;40.294;-3.754;2023-02-15T06:54:08;16.83;;;9.93;;
19782;SDS011;10051;40.294;-3.754;2023-02-15T06:56:34;18.83;;;10.47;;
19782;SDS011;10051;40.294;-3.754;2023-02-15T06:59:00;18.50;;;10.43;;
19782;SDS011;10051;40.294;-3.754;2023-02-15T07:01:26;17.10;;;10.00;;
19782;SDS011;10051;40.294;-3.754;2023-02-15T07:03:52;18.67;;;10.13;;
19782;SDS011;10051;40.294;-3.754;2023-02-15T07:06:17;16.70;;;10.17;;
19782;SDS011;10051;40.294;-3.754;2023-02-15T07:08:43;21.00;;;11.90;;
19782;SDS011;10051;40.294;-3.754;2023-02-15T07:11:08;20.37;;;12.40;;
19782;SDS011;10051;40.294;-3.754;2023-02-15T07:13:52;21.17;;;11.30;;
19782;SDS011;10051;40.294;-3.754;2023-02-15T07:16:19;23.23;;;11.20;;
19782;SDS011;10051;40.294;-3.754;2023-02-15T07:18:45;20.30;;;11.73;;
19782;SDS011;10051;40.294;-3.754;2023-02-15T07:21:10;17.80;;;10.90;;
19782;SDS011;10051;40.294;-3.754;2023-02-15T07:23:36;22.60;;;11.43;;
19782;SDS011;10051;40.294;-3.754;2023-02-15T07:26:04;21.97;;;11.03;;
19782;SDS011;10051;40.294;-3.754;2023-02-15T07:28:30;19.07;;;10.40;;
19782;SDS011;10051;40.294;-3.754;2023-02-15T07:30:57;23.83;;;11.30;;
19782;SDS011;10051;40.294;-3.754;2023-02-15T07:33:23;19.23;;;10.90;;
19782;SDS011;10051;40.294;-3.754;2023-02-15T07:35:58;24.17;;;11.73;;
19782;SDS011;10051;40.294;-3.754;2023-02-15T07:38:27;20.33;;;11.07;;
19782;SDS011;10051;40.294;-3.754;2023-02-15T07:41:00;21.47;;;11.73;;
19782;SDS011;10051;40.294;-3.754;2023-02-15T07:43:27;22.97;;;11.60;;
19782;SDS011;10051;40.294;-3.754;2023-02-15T07:45:54;21.20;;;12.10;;
19782;SDS011;10051;40.294;-3.754;2023-02-15T07:48:24;19.13;;;10.70;;
19782;SDS011;10051;40.294;-3.754;2023-02-15T07:50:49;24.67;;;11.23;;
19782;SDS011;10051;40.294;-3.754;2023-02-15T07:53:15;22.70;;;10.63;;
19782;SDS011;10051;40.294;-3.754;2023-02-15T07:55:40;22.87;;;10.33;;
19782;SDS011;10051;40.294;-3.754;2023-02-15T07:58:06;23.58;;;10.32;;
19782;SDS011;10051;40.294;-3.754;2023-02-15T08:00:32;18.23;;;9.90;;
19782;SDS011;10051;40.294;-3.754;2023-02-15T08:03:17;22.73;;;10.47;;
19782;SDS011;10051;40.294;-3.754;2023-02-15T08:05:43;28.73;;;10.60;;
19782;SDS011;10051;40.294;-3.754;2023-02-15T08:08:10;22.73;;;9.90;;
19782;SDS011;10051;40.294;-3.754;2023-02-15T08:11:02;18.00;;;9.13;;
19782;SDS011;10051;40.294;-3.754;2023-02-15T08:14:32;28.33;;;9.40;;
19782;SDS011;10051;40.294;-3.754;2023-02-15T08:16:55;21.80;;;9.57;;
19782;SDS011;10051;40.294;-3.754;2023-02-15T08:19:30;25.70;;;9.82;;
19782;SDS011;10051;40.294;-3.754;2023-02-15T08:21:58;25.33;;;9.87;;
19782;SDS011;10051;40.294;-3.754;2023-02-15T08:24:26;21.38;;;9.75;;
19782;SDS011;10051;40.294;-3.754;2023-02-15T08:26:54;24.27;;;10.85;;
19782;SDS011;10051;40.294;-3.754;2023-02-15T08:29:23;28.75;;;10.32;;
19782;SDS011;10051;40.294;-3.754;2023-02-15T08:31:58;24.65;;;9.38;;
19782;SDS011;10051;40.294;-3.754;2023-02-15T08:34:27;25.70;;;10.05;;
19782;SDS011;10051;40.294;-3.754;2023-02-15T08:36:54;26.73;;;10.25;;
19782;SDS011;10051;40.294;-3.754;2023-02-15T08:39:20;23.67;;;9.55;;
19782;SDS011;10051;40.294;-3.754;2023-02-15T08:41:49;21.48;;;8.88;;
19782;SDS011;10051;40.294;-3.754;2023-02-15T08:44:16;24.83;;;9.45;;
19782;SDS011;10051;40.294;-3.754;2023-02-15T08:46:43;29.30;;;10.25;;
19782;SDS011;10051;40.294;-3.754;2023-02-15T08:49:11;21.90;;;8.82;;
19782;SDS011;10051;40.294;-3.754;2023-02-15T08:51:38;22.30;;;8.77;;
19782;SDS011;10051;40.294;-3.754;2023-02-15T08:54:06;15.75;;;8.80;;
19782;SDS011;10051;40.294;-3.754;2023-02-15T08:56:38;17.38;;;8.45;;
19782;SDS011;10051;40.294;-3.754;2023-02-15T08:59:05;19.63;;;9.13;;
19782;SDS011;10051;40.294;-3.754;2023-02-15T09:01:33;20.42;;;9.00;;
19782;SDS011;10051;40.294;-3.754;2023-02-15T09:04:04;20.98;;;8.25;;
19782;SDS011;10051;40.294;-3.754;2023-02-15T09:06:33;16.63;;;8.27;;
19782;SDS011;10051;40.294;-3.754;2023-02-15T09:08:59;18.38;;;8.20;;
19782;SDS011;10051;40.294;-3.754;2023-02-15T09:11:27;21.88;;;8.70;;
19782;SDS011;10051;40.294;-3.754;2023-02-15T09:13:57;13.88;;;7.40;;
19782;SDS011;10051;40.294;-3.754;2023-02-15T09:16:32;14.90;;;7.10;;
19782;SDS011;10051;40.294;-3.754;2023-02-15T09:18:58;14.10;;;8.00;;
19782;SDS011;10051;40.294;-3.754;2023-02-15T09:21:26;11.00;;;6.47;;
19782;SDS011;10051;40.294;-3.754;2023-02-15T09:23:55;15.05;;;7.30;;
19782;SDS011;10051;40.294;-3.754;2023-02-15T09:26:26;14.52;;;7.35;;
19782;SDS011;10051;40.294;-3.754;2023-02-15T09:28:54;11.30;;;6.38;;
19782;SDS011;10051;40.294;-3.754;2023-02-15T09:31:22;13.25;;;6.30;;
19782;SDS011;10051;40.294;-3.754;2023-02-15T09:33:49;15.75;;;6.90;;
19782;SDS011;10051;40.294;-3.754;2023-02-15T09:36:16;17.70;;;6.22;;
19782;SDS011;10051;40.294;-3.754;2023-02-15T09:38:48;11.25;;;6.38;;
19782;SDS011;10051;40.294;-3.754;2023-02-15T09:56:03;9.35;;;5.40;;
19782;SDS011;10051;40.294;-3.754;2023-02-15T10:04:25;9.05;;;5.03;;
19782;SDS011;10051;40.294;-3.754;2023-02-15T10:26:43;7.43;;;5.20;;
19782;SDS011;10051;40.294;-3.754;2023-02-15T10:40:20;7.88;;;4.65;;
19782;SDS011;10051;40.294;-3.754;2023-02-15T10:48:38;8.00;;;4.47;;
19782;SDS011;10051;40.294;-3.754;2023-02-15T10:51:15;6.32;;;4.50;;
19782;SDS011;10051;40.294;-3.754;2023-02-15T10:54:09;9.05;;;4.78;;
19782;SDS011;10051;40.294;-3.754;2023-02-15T11:00:17;12.23;;;5.45;;
19782;SDS011;10051;40.294;-3.754;2023-02-15T11:08:29;9.80;;;5.28;;
19782;SDS011;10051;40.294;-3.754;2023-02-15T11:11:01;14.00;;;5.15;;
19782;SDS011;10051;40.294;-3.754;2023-02-15T11:13:36;7.60;;;5.20;;
19782;SDS011;10051;40.294;-3.754;2023-02-15T11:16:08;11.25;;;4.93;;
19782;SDS011;10051;40.294;-3.754;2023-02-15T11:18:41;8.80;;;5.30;;
19782;SDS011;10051;40.294;-3.754;2023-02-15T11:21:30;11.38;;;4.90;;
19782;SDS011;10051;40.294;-3.754;2023-02-15T11:24:14;8.60;;;5.32;;
19782;SDS011;10051;40.294;-3.754;2023-02-15T11:29:23;9.00;;;4.95;;
19782;SDS011;10051;40.294;-3.754;2023-02-15T11:31:59;9.15;;;4.75;;
19782;SDS011;10051;40.294;-3.754;2023-02-15T11:34:33;11.30;;;5.07;;
19782;SDS011;10051;40.294;-3.754;2023-02-15T11:37:08;11.50;;;5.03;;
19782;SDS011;10051;40.294;-3.754;2023-02-15T11:39:38;9.90;;;5.20;;
19782;SDS011;10051;40.294;-3.754;2023-02-15T11:42:06;9.43;;;4.90;;
19782;SDS011;10051;40.294;-3.754;2023-02-15T11:44:39;8.00;;;4.93;;
19782;SDS011;10051;40.294;-3.754;2023-02-15T11:47:28;12.65;;;4.85;;
19782;SDS011;10051;40.294;-3.754;2023-02-15T11:49:53;14.30;;;4.82;;
19782;SDS011;10051;40.294;-3.754;2023-02-15T11:52:19;11.43;;;4.68;;
19782;SDS011;10051;40.294;-3.754;2023-02-15T11:54:46;6.72;;;4.57;;
19782;SDS011;10051;40.294;-3.754;2023-02-15T11:57:18;6.15;;;4.20;;
19782;SDS011;10051;40.294;-3.754;2023-02-15T12:00:06;10.00;;;5.20;;
19782;SDS011;10051;40.294;-3.754;2023-02-15T12:02:40;11.65;;;4.78;;
19782;SDS011;10051;40.294;-3.754;2023-02-15T12:05:15;10.00;;;4.93;;
19782;SDS011;10051;40.294;-3.754;2023-02-15T12:07:49;11.85;;;5.47;;
19782;SDS011;10051;40.294;-3.754;2023-02-15T12:10:28;15.05;;;5.07;;
19782;SDS011;10051;40.294;-3.754;2023-02-15T12:13:13;11.25;;;4.75;;
19782;SDS011;10051;40.294;-3.754;2023-02-15T12:15:44;12.27;;;5.60;;
19782;SDS011;10051;40.294;-3.754;2023-02-15T12:20:45;9.27;;;5.50;;
19782;SDS011;10051;40.294;-3.754;2023-02-15T12:23:12;12.70;;;5.13;;
19782;SDS011;10051;40.294;-3.754;2023-02-15T12:25:41;11.18;;;5.63;;
19782;SDS011;10051;40.294;-3.754;2023-02-15T12:28:31;11.50;;;5.30;;
19782;SDS011;10051;40.294;-3.754;2023-02-15T12:31:03;10.05;;;5.38;;
19782;SDS011;10051;40.294;-3.754;2023-02-15T12:33:42;10.40;;;5.60;;
19782;SDS011;10051;40.294;-3.754;2023-02-15T12:39:03;11.05;;;5.68;;
19782;SDS011;10051;40.294;-3.754;2023-02-15T12:41:38;9.23;;;5.57;;
19782;SDS011;10051;40.294;-3.754;2023-02-15T12:44:27;10.18;;;5.45;;
19782;SDS011;10051;40.294;-3.754;2023-02-15T12:46:59;7.70;;;4.70;;
19782;SDS011;10051;40.294;-3.754;2023-02-15T12:49:28;11.93;;;5.30;;
19782;SDS011;10051;40.294;-3.754;2023-02-15T12:51:59;12.02;;;4.43;;
19782;SDS011;10051;40.294;-3.754;2023-02-15T12:54:43;8.18;;;4.60;;
19782;SDS011;10051;40.294;-3.754;2023-02-15T12:57:13;12.38;;;5.85;;
19782;SDS011;10051;40.294;-3.754;2023-02-15T12:59:49;8.05;;;5.40;;
19782;SDS011;10051;40.294;-3.754;2023-02-15T13:02:27;8.57;;;5.07;;
19782;SDS011;10051;40.294;-3.754;2023-02-15T13:04:56;78.47;;;31.10;;
19782;SDS011;10051;40.294;-3.754;2023-02-15T13:07:23;67.05;;;27.17;;
19782;SDS011;10051;40.294;-3.754;2023-02-15T13:09:54;12.23;;;6.35;;
19782;SDS011;10051;40.294;-3.754;2023-02-15T13:12:21;10.65;;;5.40;;
19782;SDS011;10051;40.294;-3.754;2023-02-15T13:14:51;10.63;;;5.30;;
19782;SDS011;10051;40.294;-3.754;2023-02-15T13:17:40;10.55;;;5.40;;
19782;SDS011;10051;40.294;-3.754;2023-02-15T13:20:29;8.27;;;5.20;;
19782;SDS011;10051;40.294;-3.754;2023-02-15T13:23:05;10.55;;;5.10;;
19782;SDS011;10051;40.294;-3.754;2023-02-15T13:25:44;9.10;;;5.07;;
19782;SDS011;10051;40.294;-3.754;2023-02-15T13:28:15;11.55;;;5.80;;
19782;SDS011;10051;40.294;-3.754;2023-02-15T13:30:47;18.08;;;5.65;;
19782;SDS011;10051;40.294;-3.754;2023-02-15T13:33:17;12.10;;;5.60;;
19782;SDS011;10051;40.294;-3.754;2023-02-15T13:35:56;9.60;;;4.88;;
19782;SDS011;10051;40.294;-3.754;2023-02-15T13:38:49;12.85;;;5.18;;
19782;SDS011;10051;40.294;-3.754;2023-02-15T13:44:34;11.65;;;5.32;;
19782;SDS011;10051;40.294;-3.754;2023-02-15T13:48:22;11.30;;;5.90;;
19782;SDS011;10051;40.294;-3.754;2023-02-15T14:04:26;11.23;;;4.60;;
19782;SDS011;10051;40.294;-3.754;2023-02-15T14:06:58;11.05;;;4.45;;
19782;SDS011;10051;40.294;-3.754;2023-02-15T14:12:37;12.70;;;6.20;;
19782;SDS011;10051;40.294;-3.754;2023-02-15T14:17:42;10.73;;;4.90;;
19782;SDS011;10051;40.294;-3.754;2023-02-15T14:23:19;7.68;;;4.43;;
19782;SDS011;10051;40.294;-3.754;2023-02-15T14:25:57;11.98;;;5.30;;
19782;SDS011;10051;40.294;-3.754;2023-02-15T14:28:37;6.65;;;4.55;;
19782;SDS011;10051;40.294;-3.754;2023-02-15T14:31:52;11.20;;;4.82;;
19782;SDS011;10051;40.294;-3.754;2023-02-15T14:37:11;8.82;;;4.43;;
19782;SDS011;10051;40.294;-3.754;2023-02-15T14:45:22;14.57;;;5.80;;
19782;SDS011;10051;40.294;-3.754;2023-02-15T14:50:42;7.72;;;4.70;;
19782;SDS011;10051;40.294;-3.754;2023-02-15T15:01:24;9.43;;;4.78;;
19782;SDS011;10051;40.294;-3.754;2023-02-15T15:03:57;9.93;;;5.07;;
19782;SDS011;10051;40.294;-3.754;2023-02-15T15:06:37;9.25;;;4.15;;
19782;SDS011;10051;40.294;-3.754;2023-02-15T15:09:22;9.90;;;4.15;;
19782;SDS011;10051;40.294;-3.754;2023-02-15T15:11:52;9.65;;;4.20;;
19782;SDS011;10051;40.294;-3.754;2023-02-15T15:17:02;6.20;;;3.60;;
19782;SDS011;10051;40.294;-3.754;2023-02-15T15:22:18;10.35;;;4.20;;
19782;SDS011;10051;40.294;-3.754;2023-02-15T15:49:29;8.93;;;3.25;;
19782;SDS011;10051;40.294;-3.754;2023-02-15T15:52:00;8.73;;;3.10;;
19782;SDS011;10051;40.294;-3.754;2023-02-15T15:54:28;8.15;;;2.90;;
19782;SDS011;10051;40.294;-3.754;2023-02-15T15:56:55;5.47;;;2.90;;
19782;SDS011;10051;40.294;-3.754;2023-02-15T15:59:36;10.98;;;3.05;;
19782;SDS011;10051;40.294;-3.754;2023-02-15T16:02:15;9.15;;;2.90;;
19782;SDS011;10051;40.294;-3.754;2023-02-15T16:04:42;7.97;;;3.50;;
19782;SDS011;10051;40.294;-3.754;2023-02-15T16:09:53;8.75;;;3.38;;
19782;SDS011;10051;40.294;-3.754;2023-02-15T16:12:35;11.77;;;3.30;;
19782;SDS011;10051;40.294;-3.754;2023-02-15T16:15:13;7.07;;;3.10;;
19782;SDS011;10051;40.294;-3.754;2023-02-15T16:17:44;8.23;;;3.10;;
19782;SDS011;10051;40.294;-3.754;2023-02-15T16:20:20;7.80;;;3.03;;
19782;SDS011;10051;40.294;-3.754;2023-02-15T16:22:50;14.68;;;3.17;;
19782;SDS011;10051;40.294;-3.754;2023-02-15T16:25:30;41.92;;;4.90;;
19782;SDS011;10051;40.294;-3.754;2023-02-15T16:28:13;16.58;;;3.53;;
19782;SDS011;10051;40.294;-3.754;2023-02-15T16:30:40;8.90;;;3.50;;
19782;SDS011;10051;40.294;-3.754;2023-02-15T16:33:14;9.63;;;3.15;;
19782;SDS011;10051;40.294;-3.754;2023-02-15T16:35:55;7.00;;;2.92;;
19782;SDS011;10051;40.294;-3.754;2023-02-15T16:41:13;7.13;;;2.90;;
19782;SDS011;10051;40.294;-3.754;2023-02-15T16:43:54;9.40;;;2.90;;
19782;SDS011;10051;40.294;-3.754;2023-02-15T16:46:27;7.65;;;2.88;;
19782;SDS011;10051;40.294;-3.754;2023-02-15T16:48:57;6.60;;;2.92;;
19782;SDS011;10051;40.294;-3.754;2023-02-15T16:51:28;9.90;;;3.00;;
19782;SDS011;10051;40.294;-3.754;2023-02-15T16:53:56;6.72;;;2.80;;
19782;SDS011;10051;40.294;-3.754;2023-02-15T16:56:29;11.05;;;3.00;;
19782;SDS011;10051;40.294;-3.754;2023-02-15T16:58:56;7.50;;;3.00;;
19782;SDS011;10051;40.294;-3.754;2023-02-15T17:01:25;8.73;;;3.17;;
19782;SDS011;10051;40.294;-3.754;2023-02-15T17:04:13;6.65;;;3.03;;
19782;SDS011;10051;40.294;-3.754;2023-02-15T17:07:16;9.60;;;2.70;;
19782;SDS011;10051;40.294;-3.754;2023-02-15T17:09:49;11.10;;;3.10;;
19782;SDS011;10051;40.294;-3.754;2023-02-15T17:15:25;7.13;;;2.92;;
19782;SDS011;10051;40.294;-3.754;2023-02-15T17:17:52;5.97;;;2.97;;
19782;SDS011;10051;40.294;-3.754;2023-02-15T17:20:19;7.72;;;3.03;;
19782;SDS011;10051;40.294;-3.754;2023-02-15T17:22:47;12.15;;;3.40;;
19782;SDS011;10051;40.294;-3.754;2023-02-15T17:25:20;10.00;;;3.28;;
19782;SDS011;10051;40.294;-3.754;2023-02-15T17:27:50;12.20;;;3.20;;
19782;SDS011;10051;40.294;-3.754;2023-02-15T17:30:24;8.52;;;3.10;;
19782;SDS011;10051;40.294;-3.754;2023-02-15T17:32:55;8.60;;;3.30;;
19782;SDS011;10051;40.294;-3.754;2023-02-15T17:35:27;6.72;;;3.80;;
19782;SDS011;10051;40.294;-3.754;2023-02-15T17:38:15;12.10;;;3.63;;
19782;SDS011;10051;40.294;-3.754;2023-02-15T17:40:43;8.98;;;3.92;;
19782;SDS011;10051;40.294;-3.754;2023-02-15T17:43:09;9.18;;;4.10;;
19782;SDS011;10051;40.294;-3.754;2023-02-15T17:45:35;8.52;;;3.97;;
19782;SDS011;10051;40.294;-3.754;2023-02-15T17:48:09;10.85;;;4.20;;
19782;SDS011;10051;40.294;-3.754;2023-02-15T17:50:44;11.95;;;4.57;;
19782;SDS011;10051;40.294;-3.754;2023-02-15T17:53:10;8.45;;;4.45;;